createdAt,value
2022-10-17T04:02:13.015Z,15.85
2022-10-17T04:05:16.157Z,16.35
2022-10-17T04:08:18.671Z,14.55
2022-10-17T04:11:25.616Z,20.27
2022-10-17T04:14:28.590Z,15.68
2022-10-17T04:17:37.220Z,14.70
2022-10-17T04:20:41.062Z,20.95
2022-10-17T04:23:43.955Z,17.67
2022-10-17T04:26:51.231Z,16.15
2022-10-17T04:29:54.113Z,17.50
2022-10-17T04:32:56.660Z,13.55
2022-10-17T04:36:00.533Z,17.35
2022-10-17T04:39:05.099Z,14.63
2022-10-17T04:42:08.395Z,14.75
2022-10-17T04:45:11.104Z,18.85
2022-10-17T04:48:14.067Z,16.25
2022-10-17T04:51:21.781Z,17.58
2022-10-17T04:54:31.922Z,15.27
2022-10-17T04:57:35.724Z,16.05
2022-10-17T05:00:39.169Z,16.30
2022-10-17T05:03:42.365Z,17.77
2022-10-17T05:06:45.114Z,16.35
2022-10-17T05:09:48.895Z,17.00
2022-10-17T05:12:52.125Z,16.62
2022-10-17T05:15:58.848Z,17.17
2022-10-17T05:19:02.461Z,16.60
2022-10-17T05:22:06.659Z,17.85
2022-10-17T05:25:09.830Z,19.90
2022-10-17T05:28:12.444Z,15.35
2022-10-17T05:31:15.788Z,19.30
2022-10-17T05:34:18.421Z,17.33
2022-10-17T05:37:21.238Z,17.02
2022-10-17T05:40:24.627Z,17.12
2022-10-17T05:43:28.403Z,16.48
2022-10-17T05:46:31.116Z,22.67
2022-10-17T05:49:44.982Z,18.27
2022-10-17T05:52:53.733Z,17.62
2022-10-17T05:55:58.848Z,14.32
2022-10-17T05:59:01.650Z,16.92
2022-10-17T06:02:04.736Z,14.87
2022-10-17T06:05:08.039Z,18.92
2022-10-17T06:08:10.646Z,14.57
2022-10-17T06:11:14.045Z,16.12
2022-10-17T06:14:16.624Z,19.05
2022-10-17T06:17:19.525Z,20.48
2022-10-17T06:20:22.038Z,17.17
2022-10-17T06:23:25.594Z,20.80
2022-10-17T06:26:28.419Z,20.23
2022-10-17T06:29:34.956Z,16.52
2022-10-17T06:32:37.505Z,15.98
2022-10-17T06:35:41.202Z,13.82
2022-10-17T06:38:43.684Z,16.83
2022-10-17T06:41:48.210Z,15.98
2022-10-17T06:44:53.055Z,14.52
2022-10-17T06:47:56.037Z,22.67
2022-10-17T06:51:01.082Z,20.12
2022-10-17T06:54:04.692Z,19.87
2022-10-17T06:57:07.373Z,15.95
2022-10-17T07:00:11.604Z,19.23
2022-10-17T07:03:14.479Z,16.75
2022-10-17T07:06:18.085Z,15.50
2022-10-17T07:09:21.186Z,19.30
2022-10-17T07:12:24.403Z,18.98
2022-10-17T07:15:27.889Z,17.37
2022-10-17T07:18:31.663Z,20.62
2022-10-17T07:21:36.703Z,18.23
2022-10-17T07:24:42.342Z,20.58
2022-10-17T07:27:49.196Z,16.75
2022-10-17T07:30:54.424Z,16.52
2022-10-17T07:33:59.611Z,18.87
2022-10-17T07:37:03.984Z,18.55
2022-10-17T07:40:08.188Z,16.80
2022-10-17T07:43:12.474Z,19.40
2022-10-17T07:46:15.458Z,17.42
2022-10-17T07:49:19.091Z,15.13
2022-10-17T07:52:21.797Z,15.88
2022-10-17T07:55:24.674Z,16.85
2022-10-17T07:58:28.748Z,16.85
2022-10-17T08:01:31.460Z,16.25
2022-10-17T08:04:34.855Z,19.77
2022-10-17T08:07:37.392Z,18.00
2022-10-17T08:10:40.222Z,15.80
2022-10-17T08:13:43.350Z,18.60
2022-10-17T08:16:46.169Z,14.07
2022-10-17T08:19:48.624Z,18.30
2022-10-17T08:23:03.828Z,16.70
2022-10-17T08:26:10.569Z,17.70
2022-10-17T08:32:26.376Z,18.05
2022-10-17T08:35:29.399Z,19.85
2022-10-17T08:38:35.288Z,15.88
2022-10-17T08:41:57.456Z,19.00
2022-10-17T08:45:42.266Z,18.20
2022-10-17T08:48:47.902Z,17.60
2022-10-17T08:51:58.035Z,16.20
2022-10-17T08:55:01.108Z,16.67
2022-10-17T08:58:05.557Z,20.27
2022-10-17T09:01:25.515Z,14.52
2022-10-17T09:05:06.075Z,17.90
2022-10-17T09:08:17.817Z,16.83
2022-10-17T09:11:47.062Z,18.27
2022-10-17T09:15:03.061Z,13.82
2022-10-17T09:18:21.130Z,14.65
2022-10-17T09:21:49.489Z,19.10
2022-10-17T09:25:06.887Z,12.48
2022-10-17T09:28:09.626Z,15.15
2022-10-17T09:31:20.041Z,12.60
2022-10-17T09:34:26.752Z,20.02
2022-10-17T09:37:32.935Z,15.93
2022-10-17T09:40:36.679Z,13.88
2022-10-17T09:43:40.171Z,15.23
2022-10-17T09:47:03.466Z,14.10
2022-10-17T09:50:34.067Z,14.45
2022-10-17T09:53:40.677Z,12.52
2022-10-17T09:57:16.987Z,13.05
2022-10-17T10:00:38.033Z,12.65
2022-10-17T10:03:40.900Z,8.57
2022-10-17T10:07:05.821Z,13.85
2022-10-17T10:10:27.649Z,8.05
2022-10-17T10:13:33.263Z,9.70
2022-10-17T10:16:43.359Z,7.18
2022-10-17T10:19:50.847Z,7.50
2022-10-17T10:23:13.649Z,8.00
2022-10-17T10:26:25.872Z,8.82
2022-10-17T10:29:34.148Z,7.82
2022-10-17T10:32:37.689Z,7.60
2022-10-17T10:35:40.623Z,6.05
2022-10-17T10:38:53.612Z,6.72
2022-10-17T10:41:56.913Z,5.85
2022-10-17T10:45:29.120Z,9.10
2022-10-17T10:48:37.037Z,14.15
2022-10-17T10:51:48.583Z,8.18
2022-10-17T10:55:03.872Z,6.97
2022-10-17T10:58:27.505Z,5.97
2022-10-17T11:01:50.442Z,8.05
2022-10-17T11:05:00.521Z,5.45
2022-10-17T11:08:24.474Z,8.40
2022-10-17T11:11:34.518Z,5.93
2022-10-17T11:15:01.303Z,6.65
2022-10-17T11:18:07.041Z,4.47
2022-10-17T11:21:20.867Z,9.15
2022-10-17T11:24:59.684Z,7.05
2022-10-17T11:28:05.477Z,6.75
2022-10-17T11:31:12.737Z,7.45
2022-10-17T11:34:21.486Z,9.90
2022-10-17T11:37:29.409Z,5.93
2022-10-17T11:40:36.137Z,5.53
2022-10-17T11:43:53.310Z,9.27
2022-10-17T11:47:05.889Z,7.43
2022-10-17T11:54:19.020Z,6.97
2022-10-17T11:57:34.896Z,6.53
2022-10-17T12:04:15.681Z,7.28
2022-10-17T12:11:01.828Z,6.95
2022-10-17T12:14:39.093Z,5.37
2022-10-17T12:17:46.396Z,6.07
2022-10-17T12:21:00.180Z,3.97
2022-10-17T12:24:02.967Z,3.85
2022-10-17T12:27:38.500Z,3.08
2022-10-17T12:30:55.199Z,3.25
2022-10-17T12:34:00.479Z,5.35
2022-10-17T12:37:03.281Z,6.03
2022-10-17T12:40:34.778Z,3.53
2022-10-17T12:43:48.143Z,3.85
2022-10-17T12:46:51.942Z,6.75
2022-10-17T12:49:56.725Z,4.22
2022-10-17T12:53:06.438Z,6.22
2022-10-17T12:56:09.945Z,7.78
2022-10-17T12:59:20.521Z,6.50
2022-10-17T13:02:28.262Z,7.35
2022-10-17T13:05:34.889Z,5.82
2022-10-17T13:08:43.290Z,4.93
2022-10-17T13:11:46.007Z,4.28
2022-10-17T13:14:51.492Z,5.43
2022-10-17T13:17:59.087Z,4.40
2022-10-17T13:21:06.558Z,5.53
2022-10-17T13:24:41.903Z,4.10
2022-10-17T13:27:45.000Z,6.65
2022-10-17T13:30:49.563Z,4.30
2022-10-17T13:33:57.142Z,3.28
2022-10-17T13:37:10.680Z,3.53
2022-10-17T13:40:40.275Z,3.28
2022-10-17T13:43:42.039Z,6.22
2022-10-17T13:46:45.228Z,4.30
2022-10-17T13:49:49.546Z,7.30
2022-10-17T13:53:16.250Z,5.75
2022-10-17T13:56:29.932Z,3.78
2022-10-17T13:59:41.572Z,4.47
2022-10-17T14:02:44.154Z,4.57
2022-10-17T14:06:26.968Z,5.03
2022-10-17T14:09:30.882Z,7.10
2022-10-17T14:12:34.514Z,3.90
2022-10-17T14:15:37.530Z,7.28
2022-10-17T14:18:40.716Z,3.97
2022-10-17T14:21:48.968Z,6.43
2022-10-17T14:24:53.435Z,8.60
2022-10-17T14:28:09.178Z,7.20
2022-10-17T14:31:21.129Z,4.95
2022-10-17T14:34:29.852Z,8.40
2022-10-17T14:37:48.778Z,5.43
2022-10-17T14:41:00.944Z,6.03
2022-10-17T14:44:24.669Z,4.93
2022-10-17T14:47:42.761Z,6.25
2022-10-17T14:51:14.731Z,5.35
2022-10-17T14:54:24.012Z,5.53
2022-10-17T14:57:26.838Z,7.32
2022-10-17T15:00:29.594Z,7.93
2022-10-17T15:03:32.455Z,6.18
2022-10-17T15:06:35.484Z,7.07
2022-10-17T15:09:38.283Z,4.62
2022-10-17T15:12:51.012Z,5.10
2022-10-17T15:16:01.856Z,7.78
2022-10-17T15:19:04.455Z,8.98
2022-10-17T15:22:07.457Z,7.55
2022-10-17T15:25:10.022Z,13.80
2022-10-17T15:28:13.636Z,7.68
2022-10-17T15:31:19.007Z,5.03
2022-10-17T15:34:23.438Z,6.30
2022-10-17T15:37:26.256Z,8.75
2022-10-17T15:40:29.814Z,7.85
2022-10-17T15:43:32.357Z,4.62
2022-10-17T15:46:36.099Z,6.10
2022-10-17T15:49:39.197Z,9.07
2022-10-17T15:52:42.139Z,7.97
2022-10-17T15:55:44.763Z,6.30
2022-10-17T15:58:47.890Z,8.07
